sensor_id;sensor_type;location;lat;lon;timestamp;P1;durP1;ratioP1;P2;durP2;ratioP2
21339;SDS011;10828;47.064;15.422;2022-12-31T00:00:34;13.13;;;4.07;;
21339;SDS011;10828;47.064;15.422;2022-12-31T00:03:02;9.53;;;4.03;;
21339;SDS011;10828;47.064;15.422;2022-12-31T00:05:33;14.80;;;5.13;;
21339;SDS011;10828;47.064;15.422;2022-12-31T00:08:00;13.33;;;5.97;;
21339;SDS011;10828;47.064;15.422;2022-12-31T00:10:26;13.10;;;4.77;;
21339;SDS011;10828;47.064;15.422;2022-12-31T00:12:52;17.93;;;4.97;;
21339;SDS011;10828;47.064;15.422;2022-12-31T00:15:18;13.70;;;4.97;;
21339;SDS011;10828;47.064;15.422;2022-12-31T00:17:44;17.30;;;4.67;;
21339;SDS011;10828;47.064;15.422;2022-12-31T00:20:09;9.60;;;4.40;;
21339;SDS011;10828;47.064;15.422;2022-12-31T00:22:35;12.40;;;4.27;;
21339;SDS011;10828;47.064;15.422;2022-12-31T00:25:01;8.63;;;4.23;;
21339;SDS011;10828;47.064;15.422;2022-12-31T00:27:31;15.50;;;5.80;;
21339;SDS011;10828;47.064;15.422;2022-12-31T00:29:57;10.47;;;4.73;;
21339;SDS011;10828;47.064;15.422;2022-12-31T00:32:23;11.33;;;4.93;;
21339;SDS011;10828;47.064;15.422;2022-12-31T00:34:49;12.57;;;5.13;;
21339;SDS011;10828;47.064;15.422;2022-12-31T00:37:14;15.10;;;4.90;;
21339;SDS011;10828;47.064;15.422;2022-12-31T00:39:40;21.10;;;6.00;;
21339;SDS011;10828;47.064;15.422;2022-12-31T00:42:07;21.07;;;5.97;;
21339;SDS011;10828;47.064;15.422;2022-12-31T00:44:32;16.13;;;4.80;;
21339;SDS011;10828;47.064;15.422;2022-12-31T00:46:58;18.33;;;5.37;;
21339;SDS011;10828;47.064;15.422;2022-12-31T00:49:23;13.53;;;5.67;;
21339;SDS011;10828;47.064;15.422;2022-12-31T00:51:49;15.03;;;5.73;;
21339;SDS011;10828;47.064;15.422;2022-12-31T00:54:14;16.60;;;6.77;;
21339;SDS011;10828;47.064;15.422;2022-12-31T00:56:40;22.87;;;6.17;;
21339;SDS011;10828;47.064;15.422;2022-12-31T00:59:06;14.33;;;5.00;;
21339;SDS011;10828;47.064;15.422;2022-12-31T01:01:35;13.20;;;5.57;;
21339;SDS011;10828;47.064;15.422;2022-12-31T01:04:04;10.00;;;4.77;;
21339;SDS011;10828;47.064;15.422;2022-12-31T01:06:41;9.03;;;4.57;;
21339;SDS011;10828;47.064;15.422;2022-12-31T01:09:07;12.53;;;4.80;;
21339;SDS011;10828;47.064;15.422;2022-12-31T01:11:34;12.73;;;6.03;;
21339;SDS011;10828;47.064;15.422;2022-12-31T01:14:04;14.20;;;6.07;;
21339;SDS011;10828;47.064;15.422;2022-12-31T01:16:33;16.80;;;5.77;;
21339;SDS011;10828;47.064;15.422;2022-12-31T01:19:03;14.97;;;7.27;;
21339;SDS011;10828;47.064;15.422;2022-12-31T01:21:30;16.83;;;5.83;;
21339;SDS011;10828;47.064;15.422;2022-12-31T01:23:57;12.50;;;5.50;;
21339;SDS011;10828;47.064;15.422;2022-12-31T01:26:23;21.30;;;5.87;;
21339;SDS011;10828;47.064;15.422;2022-12-31T01:28:49;21.27;;;5.07;;
21339;SDS011;10828;47.064;15.422;2022-12-31T01:31:16;14.23;;;6.40;;
21339;SDS011;10828;47.064;15.422;2022-12-31T01:33:43;11.63;;;5.37;;
21339;SDS011;10828;47.064;15.422;2022-12-31T01:36:31;15.57;;;5.63;;
21339;SDS011;10828;47.064;15.422;2022-12-31T01:38:57;16.60;;;4.97;;
21339;SDS011;10828;47.064;15.422;2022-12-31T01:41:25;14.60;;;5.50;;
21339;SDS011;10828;47.064;15.422;2022-12-31T01:43:54;14.23;;;6.60;;
21339;SDS011;10828;47.064;15.422;2022-12-31T01:46:24;13.07;;;5.07;;
21339;SDS011;10828;47.064;15.422;2022-12-31T01:48:59;13.47;;;5.00;;
21339;SDS011;10828;47.064;15.422;2022-12-31T01:51:29;20.17;;;5.43;;
21339;SDS011;10828;47.064;15.422;2022-12-31T01:53:57;17.20;;;6.27;;
21339;SDS011;10828;47.064;15.422;2022-12-31T01:56:26;13.77;;;5.50;;
21339;SDS011;10828;47.064;15.422;2022-12-31T01:58:53;16.07;;;6.30;;
21339;SDS011;10828;47.064;15.422;2022-12-31T02:01:23;16.53;;;6.23;;
21339;SDS011;10828;47.064;15.422;2022-12-31T02:03:51;21.50;;;8.23;;
21339;SDS011;10828;47.064;15.422;2022-12-31T02:06:19;20.90;;;5.77;;
21339;SDS011;10828;47.064;15.422;2022-12-31T02:08:48;13.77;;;5.63;;
21339;SDS011;10828;47.064;15.422;2022-12-31T02:11:22;13.80;;;6.00;;
21339;SDS011;10828;47.064;15.422;2022-12-31T02:13:58;12.97;;;5.37;;
21339;SDS011;10828;47.064;15.422;2022-12-31T02:19:03;13.63;;;6.30;;
21339;SDS011;10828;47.064;15.422;2022-12-31T02:31:53;16.97;;;5.67;;
21339;SDS011;10828;47.064;15.422;2022-12-31T02:34:26;13.90;;;5.77;;
21339;SDS011;10828;47.064;15.422;2022-12-31T02:36:56;17.50;;;6.17;;
21339;SDS011;10828;47.064;15.422;2022-12-31T02:39:24;18.77;;;6.57;;
21339;SDS011;10828;47.064;15.422;2022-12-31T02:41:51;19.03;;;6.43;;
21339;SDS011;10828;47.064;15.422;2022-12-31T02:44:30;17.63;;;6.63;;
21339;SDS011;10828;47.064;15.422;2022-12-31T02:55:02;19.40;;;6.47;;
21339;SDS011;10828;47.064;15.422;2022-12-31T02:57:45;18.20;;;6.90;;
21339;SDS011;10828;47.064;15.422;2022-12-31T03:00:17;18.27;;;5.67;;
21339;SDS011;10828;47.064;15.422;2022-12-31T03:03:02;18.97;;;5.73;;
21339;SDS011;10828;47.064;15.422;2022-12-31T03:05:32;15.47;;;5.40;;
21339;SDS011;10828;47.064;15.422;2022-12-31T03:08:01;13.43;;;6.43;;
21339;SDS011;10828;47.064;15.422;2022-12-31T03:10:27;16.50;;;6.07;;
21339;SDS011;10828;47.064;15.422;2022-12-31T03:12:52;14.40;;;5.27;;
21339;SDS011;10828;47.064;15.422;2022-12-31T03:15:22;12.77;;;5.33;;
21339;SDS011;10828;47.064;15.422;2022-12-31T03:20:16;19.20;;;6.87;;
21339;SDS011;10828;47.064;15.422;2022-12-31T03:23:00;22.03;;;4.97;;
21339;SDS011;10828;47.064;15.422;2022-12-31T03:25:29;15.33;;;4.40;;
21339;SDS011;10828;47.064;15.422;2022-12-31T03:28:02;9.83;;;3.73;;
21339;SDS011;10828;47.064;15.422;2022-12-31T03:30:31;10.00;;;3.43;;
21339;SDS011;10828;47.064;15.422;2022-12-31T03:32:57;11.43;;;3.33;;
21339;SDS011;10828;47.064;15.422;2022-12-31T03:35:24;9.03;;;3.70;;
21339;SDS011;10828;47.064;15.422;2022-12-31T03:37:51;9.67;;;4.07;;
21339;SDS011;10828;47.064;15.422;2022-12-31T03:40:18;8.00;;;3.47;;
21339;SDS011;10828;47.064;15.422;2022-12-31T03:42:45;11.87;;;3.87;;
21339;SDS011;10828;47.064;15.422;2022-12-31T03:45:11;13.80;;;4.73;;
21339;SDS011;10828;47.064;15.422;2022-12-31T03:47:37;12.17;;;4.83;;
21339;SDS011;10828;47.064;15.422;2022-12-31T03:50:03;8.83;;;3.97;;
21339;SDS011;10828;47.064;15.422;2022-12-31T03:52:30;11.17;;;3.97;;
21339;SDS011;10828;47.064;15.422;2022-12-31T03:54:55;16.87;;;5.03;;
21339;SDS011;10828;47.064;15.422;2022-12-31T03:57:21;19.33;;;6.60;;
21339;SDS011;10828;47.064;15.422;2022-12-31T03:59:47;16.83;;;6.40;;
21339;SDS011;10828;47.064;15.422;2022-12-31T04:02:13;16.93;;;7.30;;
21339;SDS011;10828;47.064;15.422;2022-12-31T04:04:41;19.13;;;7.37;;
21339;SDS011;10828;47.064;15.422;2022-12-31T04:07:07;24.87;;;8.00;;
21339;SDS011;10828;47.064;15.422;2022-12-31T04:09:32;23.27;;;7.10;;
21339;SDS011;10828;47.064;15.422;2022-12-31T04:14:33;22.93;;;8.23;;
21339;SDS011;10828;47.064;15.422;2022-12-31T04:16:59;20.17;;;8.00;;
21339;SDS011;10828;47.064;15.422;2022-12-31T04:19:24;17.83;;;7.07;;
21339;SDS011;10828;47.064;15.422;2022-12-31T04:22:01;14.57;;;6.50;;
21339;SDS011;10828;47.064;15.422;2022-12-31T04:24:27;16.73;;;5.70;;
21339;SDS011;10828;47.064;15.422;2022-12-31T04:26:53;22.73;;;6.33;;
21339;SDS011;10828;47.064;15.422;2022-12-31T04:29:18;12.37;;;4.17;;
21339;SDS011;10828;47.064;15.422;2022-12-31T04:31:44;16.33;;;6.10;;
21339;SDS011;10828;47.064;15.422;2022-12-31T04:34:10;15.03;;;5.50;;
21339;SDS011;10828;47.064;15.422;2022-12-31T04:36:35;11.27;;;4.93;;
21339;SDS011;10828;47.064;15.422;2022-12-31T04:39:01;13.83;;;5.10;;
21339;SDS011;10828;47.064;15.422;2022-12-31T04:41:27;17.50;;;5.40;;
21339;SDS011;10828;47.064;15.422;2022-12-31T04:43:53;15.53;;;4.73;;
21339;SDS011;10828;47.064;15.422;2022-12-31T04:46:31;15.83;;;6.03;;
21339;SDS011;10828;47.064;15.422;2022-12-31T04:48:58;11.40;;;5.13;;
21339;SDS011;10828;47.064;15.422;2022-12-31T04:51:24;12.60;;;6.23;;
21339;SDS011;10828;47.064;15.422;2022-12-31T04:53:50;16.90;;;5.87;;
21339;SDS011;10828;47.064;15.422;2022-12-31T04:56:18;19.87;;;4.90;;
21339;SDS011;10828;47.064;15.422;2022-12-31T04:58:45;13.77;;;6.07;;
21339;SDS011;10828;47.064;15.422;2022-12-31T05:01:11;14.83;;;4.83;;
21339;SDS011;10828;47.064;15.422;2022-12-31T05:03:37;17.03;;;6.37;;
21339;SDS011;10828;47.064;15.422;2022-12-31T05:06:04;19.80;;;5.00;;
21339;SDS011;10828;47.064;15.422;2022-12-31T05:08:35;16.80;;;4.93;;
21339;SDS011;10828;47.064;15.422;2022-12-31T05:11:00;10.83;;;4.07;;
21339;SDS011;10828;47.064;15.422;2022-12-31T05:13:26;12.03;;;5.40;;
21339;SDS011;10828;47.064;15.422;2022-12-31T05:15:52;14.83;;;5.43;;
21339;SDS011;10828;47.064;15.422;2022-12-31T05:18:18;12.17;;;4.93;;
21339;SDS011;10828;47.064;15.422;2022-12-31T05:20:44;12.93;;;4.40;;
21339;SDS011;10828;47.064;15.422;2022-12-31T05:23:11;15.73;;;5.13;;
21339;SDS011;10828;47.064;15.422;2022-12-31T05:25:37;15.33;;;5.73;;
21339;SDS011;10828;47.064;15.422;2022-12-31T05:28:03;15.03;;;5.37;;
21339;SDS011;10828;47.064;15.422;2022-12-31T05:32:59;11.40;;;5.43;;
21339;SDS011;10828;47.064;15.422;2022-12-31T05:35:25;17.30;;;5.60;;
21339;SDS011;10828;47.064;15.422;2022-12-31T05:37:51;14.70;;;4.60;;
21339;SDS011;10828;47.064;15.422;2022-12-31T05:40:19;17.47;;;6.03;;
21339;SDS011;10828;47.064;15.422;2022-12-31T05:42:45;15.93;;;5.73;;
21339;SDS011;10828;47.064;15.422;2022-12-31T05:45:10;25.63;;;5.70;;
21339;SDS011;10828;47.064;15.422;2022-12-31T05:47:40;21.33;;;6.13;;
21339;SDS011;10828;47.064;15.422;2022-12-31T05:50:06;16.07;;;6.27;;
21339;SDS011;10828;47.064;15.422;2022-12-31T05:52:33;13.73;;;6.67;;
21339;SDS011;10828;47.064;15.422;2022-12-31T05:54:59;15.57;;;5.60;;
21339;SDS011;10828;47.064;15.422;2022-12-31T05:57:24;12.90;;;5.70;;
21339;SDS011;10828;47.064;15.422;2022-12-31T05:59:50;10.43;;;4.97;;
21339;SDS011;10828;47.064;15.422;2022-12-31T06:02:17;14.53;;;6.77;;
21339;SDS011;10828;47.064;15.422;2022-12-31T06:04:43;17.77;;;5.37;;
21339;SDS011;10828;47.064;15.422;2022-12-31T06:07:09;15.73;;;5.37;;
21339;SDS011;10828;47.064;15.422;2022-12-31T06:09:35;23.97;;;6.47;;
21339;SDS011;10828;47.064;15.422;2022-12-31T06:12:00;11.60;;;5.00;;
21339;SDS011;10828;47.064;15.422;2022-12-31T06:14:26;12.20;;;5.10;;
21339;SDS011;10828;47.064;15.422;2022-12-31T06:16:51;11.87;;;5.33;;
21339;SDS011;10828;47.064;15.422;2022-12-31T06:19:17;17.50;;;5.30;;
21339;SDS011;10828;47.064;15.422;2022-12-31T06:21:43;14.53;;;4.13;;
21339;SDS011;10828;47.064;15.422;2022-12-31T06:24:08;13.33;;;6.03;;
21339;SDS011;10828;47.064;15.422;2022-12-31T06:26:34;13.10;;;5.40;;
21339;SDS011;10828;47.064;15.422;2022-12-31T06:29:00;13.77;;;5.83;;
21339;SDS011;10828;47.064;15.422;2022-12-31T06:31:28;16.67;;;6.07;;
21339;SDS011;10828;47.064;15.422;2022-12-31T06:33:53;12.97;;;5.57;;
21339;SDS011;10828;47.064;15.422;2022-12-31T06:36:19;11.47;;;5.63;;
21339;SDS011;10828;47.064;15.422;2022-12-31T06:38:46;10.53;;;4.57;;
21339;SDS011;10828;47.064;15.422;2022-12-31T06:41:13;13.97;;;5.37;;
21339;SDS011;10828;47.064;15.422;2022-12-31T06:43:40;11.13;;;5.30;;
21339;SDS011;10828;47.064;15.422;2022-12-31T06:46:07;13.83;;;4.20;;
21339;SDS011;10828;47.064;15.422;2022-12-31T06:48:39;18.07;;;5.70;;
21339;SDS011;10828;47.064;15.422;2022-12-31T06:51:17;20.30;;;6.53;;
21339;SDS011;10828;47.064;15.422;2022-12-31T06:53:45;12.20;;;5.30;;
21339;SDS011;10828;47.064;15.422;2022-12-31T06:56:15;14.77;;;4.73;;
21339;SDS011;10828;47.064;15.422;2022-12-31T06:58:49;19.97;;;6.20;;
21339;SDS011;10828;47.064;15.422;2022-12-31T07:10:00;11.00;;;4.47;;
21339;SDS011;10828;47.064;15.422;2022-12-31T07:20:56;9.83;;;4.43;;
21339;SDS011;10828;47.064;15.422;2022-12-31T07:23:21;18.60;;;7.00;;
21339;SDS011;10828;47.064;15.422;2022-12-31T07:25:53;11.97;;;4.77;;
21339;SDS011;10828;47.064;15.422;2022-12-31T07:28:38;13.53;;;4.57;;
21339;SDS011;10828;47.064;15.422;2022-12-31T07:31:27;10.27;;;4.73;;
21339;SDS011;10828;47.064;15.422;2022-12-31T07:34:19;12.47;;;4.73;;
21339;SDS011;10828;47.064;15.422;2022-12-31T07:37:00;12.10;;;5.90;;
21339;SDS011;10828;47.064;15.422;2022-12-31T07:39:40;9.43;;;4.23;;
21339;SDS011;10828;47.064;15.422;2022-12-31T07:42:23;11.43;;;5.37;;
21339;SDS011;10828;47.064;15.422;2022-12-31T07:45:01;11.13;;;5.00;;
21339;SDS011;10828;47.064;15.422;2022-12-31T07:47:34;12.03;;;5.23;;
21339;SDS011;10828;47.064;15.422;2022-12-31T07:50:00;17.80;;;5.20;;
21339;SDS011;10828;47.064;15.422;2022-12-31T07:52:26;15.07;;;5.23;;
21339;SDS011;10828;47.064;15.422;2022-12-31T07:54:52;17.37;;;5.60;;
21339;SDS011;10828;47.064;15.422;2022-12-31T07:57:18;19.40;;;6.03;;
21339;SDS011;10828;47.064;15.422;2022-12-31T08:10:08;12.10;;;4.93;;
21339;SDS011;10828;47.064;15.422;2022-12-31T08:12:38;14.80;;;4.97;;
21339;SDS011;10828;47.064;15.422;2022-12-31T08:15:15;19.60;;;4.80;;
21339;SDS011;10828;47.064;15.422;2022-12-31T08:17:42;18.73;;;4.53;;
21339;SDS011;10828;47.064;15.422;2022-12-31T08:20:12;14.43;;;6.13;;
21339;SDS011;10828;47.064;15.422;2022-12-31T08:22:54;13.90;;;5.53;;
21339;SDS011;10828;47.064;15.422;2022-12-31T08:28:14;20.47;;;6.13;;
21339;SDS011;10828;47.064;15.422;2022-12-31T08:33:13;21.17;;;7.03;;
21339;SDS011;10828;47.064;15.422;2022-12-31T08:41:23;16.57;;;5.83;;
21339;SDS011;10828;47.064;15.422;2022-12-31T08:44:05;18.63;;;6.73;;
21339;SDS011;10828;47.064;15.422;2022-12-31T08:46:54;12.17;;;5.43;;
21339;SDS011;10828;47.064;15.422;2022-12-31T08:49:27;20.53;;;6.53;;
21339;SDS011;10828;47.064;15.422;2022-12-31T08:51:54;16.00;;;5.67;;
21339;SDS011;10828;47.064;15.422;2022-12-31T08:54:20;17.60;;;7.63;;
21339;SDS011;10828;47.064;15.422;2022-12-31T09:05:26;13.87;;;6.00;;
21339;SDS011;10828;47.064;15.422;2022-12-31T09:14:07;10.87;;;5.27;;
21339;SDS011;10828;47.064;15.422;2022-12-31T09:19:09;19.57;;;5.53;;
21339;SDS011;10828;47.064;15.422;2022-12-31T09:21:34;18.13;;;5.80;;
21339;SDS011;10828;47.064;15.422;2022-12-31T09:24:02;21.27;;;6.80;;
21339;SDS011;10828;47.064;15.422;2022-12-31T09:26:38;11.33;;;5.00;;
21339;SDS011;10828;47.064;15.422;2022-12-31T09:35:04;13.27;;;5.87;;
21339;SDS011;10828;47.064;15.422;2022-12-31T09:42:59;28.63;;;6.53;;
21339;SDS011;10828;47.064;15.422;2022-12-31T09:46:08;12.80;;;4.90;;
21339;SDS011;10828;47.064;15.422;2022-12-31T10:00:07;15.20;;;6.50;;
21339;SDS011;10828;47.064;15.422;2022-12-31T10:03:01;20.53;;;7.47;;
21339;SDS011;10828;47.064;15.422;2022-12-31T10:14:07;24.77;;;9.40;;
21339;SDS011;10828;47.064;15.422;2022-12-31T10:16:48;27.90;;;9.67;;
21339;SDS011;10828;47.064;15.422;2022-12-31T10:22:55;22.47;;;9.00;;
21339;SDS011;10828;47.064;15.422;2022-12-31T10:25:51;22.37;;;7.90;;
21339;SDS011;10828;47.064;15.422;2022-12-31T10:28:45;23.83;;;7.67;;
21339;SDS011;10828;47.064;15.422;2022-12-31T10:34:15;19.23;;;8.00;;
21339;SDS011;10828;47.064;15.422;2022-12-31T10:36:52;17.87;;;7.77;;
21339;SDS011;10828;47.064;15.422;2022-12-31T10:39:39;18.13;;;7.27;;
21339;SDS011;10828;47.064;15.422;2022-12-31T10:44:45;17.47;;;6.17;;
21339;SDS011;10828;47.064;15.422;2022-12-31T10:47:39;16.80;;;7.43;;
21339;SDS011;10828;47.064;15.422;2022-12-31T10:58:34;21.40;;;9.13;;
21339;SDS011;10828;47.064;15.422;2022-12-31T11:12:55;25.63;;;9.00;;
21339;SDS011;10828;47.064;15.422;2022-12-31T11:15:34;29.93;;;8.50;;
21339;SDS011;10828;47.064;15.422;2022-12-31T11:24:04;26.27;;;10.23;;
21339;SDS011;10828;47.064;15.422;2022-12-31T11:27:02;21.43;;;7.53;;
21339;SDS011;10828;47.064;15.422;2022-12-31T11:30:08;35.67;;;9.33;;
21339;SDS011;10828;47.064;15.422;2022-12-31T11:32:48;23.70;;;8.67;;
21339;SDS011;10828;47.064;15.422;2022-12-31T11:40:42;30.93;;;9.33;;
21339;SDS011;10828;47.064;15.422;2022-12-31T11:43:34;33.03;;;10.23;;
21339;SDS011;10828;47.064;15.422;2022-12-31T11:46:14;34.70;;;11.17;;
21339;SDS011;10828;47.064;15.422;2022-12-31T11:59:51;25.97;;;7.33;;
21339;SDS011;10828;47.064;15.422;2022-12-31T12:02:24;17.90;;;6.70;;
21339;SDS011;10828;47.064;15.422;2022-12-31T12:04:51;20.57;;;7.93;;
21339;SDS011;10828;47.064;15.422;2022-12-31T12:07:17;24.93;;;8.03;;
21339;SDS011;10828;47.064;15.422;2022-12-31T12:09:44;15.67;;;6.10;;
21339;SDS011;10828;47.064;15.422;2022-12-31T12:12:10;19.20;;;7.00;;
21339;SDS011;10828;47.064;15.422;2022-12-31T12:14:40;18.90;;;6.43;;
21339;SDS011;10828;47.064;15.422;2022-12-31T12:17:08;17.27;;;6.20;;
21339;SDS011;10828;47.064;15.422;2022-12-31T12:19:45;13.20;;;5.40;;
21339;SDS011;10828;47.064;15.422;2022-12-31T12:22:21;18.63;;;5.57;;
21339;SDS011;10828;47.064;15.422;2022-12-31T12:25:00;13.00;;;5.63;;
21339;SDS011;10828;47.064;15.422;2022-12-31T12:27:30;21.03;;;5.73;;
21339;SDS011;10828;47.064;15.422;2022-12-31T12:30:07;24.27;;;6.23;;
21339;SDS011;10828;47.064;15.422;2022-12-31T12:32:49;24.33;;;6.27;;
21339;SDS011;10828;47.064;15.422;2022-12-31T12:35:19;18.73;;;6.03;;
21339;SDS011;10828;47.064;15.422;2022-12-31T12:38:01;28.03;;;6.60;;
21339;SDS011;10828;47.064;15.422;2022-12-31T12:40:30;18.67;;;5.80;;
21339;SDS011;10828;47.064;15.422;2022-12-31T12:42:57;33.97;;;6.87;;
21339;SDS011;10828;47.064;15.422;2022-12-31T12:45:24;41.93;;;8.10;;
21339;SDS011;10828;47.064;15.422;2022-12-31T12:47:59;16.13;;;6.33;;
21339;SDS011;10828;47.064;15.422;2022-12-31T12:50:43;24.27;;;5.60;;
21339;SDS011;10828;47.064;15.422;2022-12-31T12:53:15;20.50;;;7.23;;
21339;SDS011;10828;47.064;15.422;2022-12-31T13:03:55;18.63;;;5.67;;
21339;SDS011;10828;47.064;15.422;2022-12-31T13:09:27;22.17;;;6.97;;
21339;SDS011;10828;47.064;15.422;2022-12-31T13:12:11;13.33;;;5.30;;
21339;SDS011;10828;47.064;15.422;2022-12-31T13:14:53;17.47;;;6.23;;
21339;SDS011;10828;47.064;15.422;2022-12-31T13:17:45;23.67;;;6.40;;
21339;SDS011;10828;47.064;15.422;2022-12-31T13:20:19;21.13;;;6.87;;
21339;SDS011;10828;47.064;15.422;2022-12-31T13:25:41;25.70;;;7.60;;
21339;SDS011;10828;47.064;15.422;2022-12-31T13:28:26;25.47;;;6.70;;
21339;SDS011;10828;47.064;15.422;2022-12-31T13:30:56;15.20;;;5.93;;
21339;SDS011;10828;47.064;15.422;2022-12-31T13:33:27;18.63;;;6.97;;
21339;SDS011;10828;47.064;15.422;2022-12-31T13:35:57;17.03;;;5.90;;
21339;SDS011;10828;47.064;15.422;2022-12-31T13:38:27;18.87;;;6.27;;
21339;SDS011;10828;47.064;15.422;2022-12-31T13:41:04;29.20;;;7.73;;
21339;SDS011;10828;47.064;15.422;2022-12-31T13:48:35;12.17;;;4.83;;
21339;SDS011;10828;47.064;15.422;2022-12-31T13:51:10;18.57;;;5.77;;
21339;SDS011;10828;47.064;15.422;2022-12-31T13:53:44;34.20;;;5.83;;
21339;SDS011;10828;47.064;15.422;2022-12-31T13:56:24;32.40;;;6.10;;
21339;SDS011;10828;47.064;15.422;2022-12-31T13:58:54;20.30;;;5.00;;
21339;SDS011;10828;47.064;15.422;2022-12-31T14:01:39;34.73;;;6.77;;
21339;SDS011;10828;47.064;15.422;2022-12-31T14:06:49;20.67;;;5.50;;
21339;SDS011;10828;47.064;15.422;2022-12-31T14:09:26;16.07;;;4.60;;
21339;SDS011;10828;47.064;15.422;2022-12-31T14:20:46;23.13;;;5.90;;
21339;SDS011;10828;47.064;15.422;2022-12-31T14:23:34;24.50;;;5.97;;
21339;SDS011;10828;47.064;15.422;2022-12-31T14:26:20;24.77;;;6.30;;
21339;SDS011;10828;47.064;15.422;2022-12-31T14:29:17;25.40;;;6.93;;
21339;SDS011;10828;47.064;15.422;2022-12-31T14:43:00;32.40;;;6.87;;
21339;SDS011;10828;47.064;15.422;2022-12-31T14:45:25;26.13;;;7.53;;
21339;SDS011;10828;47.064;15.422;2022-12-31T14:50:53;22.67;;;5.43;;
21339;SDS011;10828;47.064;15.422;2022-12-31T14:53:23;19.03;;;5.57;;
21339;SDS011;10828;47.064;15.422;2022-12-31T14:55:58;27.63;;;7.20;;
21339;SDS011;10828;47.064;15.422;2022-12-31T14:58:36;29.73;;;7.03;;
21339;SDS011;10828;47.064;15.422;2022-12-31T15:01:04;38.37;;;7.30;;
21339;SDS011;10828;47.064;15.422;2022-12-31T15:03:49;50.63;;;9.57;;
21339;SDS011;10828;47.064;15.422;2022-12-31T15:09:22;23.50;;;7.20;;
21339;SDS011;10828;47.064;15.422;2022-12-31T15:12:26;26.27;;;6.33;;
21339;SDS011;10828;47.064;15.422;2022-12-31T15:23:54;24.53;;;6.53;;
21339;SDS011;10828;47.064;15.422;2022-12-31T15:26:27;15.50;;;5.17;;
21339;SDS011;10828;47.064;15.422;2022-12-31T15:29:05;17.93;;;5.70;;
21339;SDS011;10828;47.064;15.422;2022-12-31T15:31:33;29.37;;;7.97;;
21339;SDS011;10828;47.064;15.422;2022-12-31T15:36:31;20.53;;;6.43;;
21339;SDS011;10828;47.064;15.422;2022-12-31T15:46:42;16.20;;;5.80;;
21339;SDS011;10828;47.064;15.422;2022-12-31T15:49:13;24.67;;;6.83;;
21339;SDS011;10828;47.064;15.422;2022-12-31T15:51:50;28.23;;;6.93;;
21339;SDS011;10828;47.064;15.422;2022-12-31T15:54:37;17.70;;;5.60;;
21339;SDS011;10828;47.064;15.422;2022-12-31T15:57:10;16.30;;;7.30;;
21339;SDS011;10828;47.064;15.422;2022-12-31T16:00:14;16.70;;;5.53;;
21339;SDS011;10828;47.064;15.422;2022-12-31T16:02:41;15.40;;;6.57;;
21339;SDS011;10828;47.064;15.422;2022-12-31T16:05:24;18.23;;;6.40;;
21339;SDS011;10828;47.064;15.422;2022-12-31T16:07:52;27.90;;;7.30;;
21339;SDS011;10828;47.064;15.422;2022-12-31T16:10:30;22.00;;;7.17;;
21339;SDS011;10828;47.064;15.422;2022-12-31T16:12:56;18.73;;;6.37;;
21339;SDS011;10828;47.064;15.422;2022-12-31T16:15:25;18.57;;;7.57;;
21339;SDS011;10828;47.064;15.422;2022-12-31T16:18:03;20.83;;;7.80;;
21339;SDS011;10828;47.064;15.422;2022-12-31T16:20:40;32.97;;;9.77;;
21339;SDS011;10828;47.064;15.422;2022-12-31T16:23:20;22.90;;;8.07;;
21339;SDS011;10828;47.064;15.422;2022-12-31T16:25:48;25.00;;;9.93;;
21339;SDS011;10828;47.064;15.422;2022-12-31T16:28:15;27.97;;;8.90;;
21339;SDS011;10828;47.064;15.422;2022-12-31T16:30:43;26.87;;;7.40;;
21339;SDS011;10828;47.064;15.422;2022-12-31T16:33:11;21.93;;;7.53;;
21339;SDS011;10828;47.064;15.422;2022-12-31T16:35:39;22.80;;;6.97;;
21339;SDS011;10828;47.064;15.422;2022-12-31T16:38:12;19.07;;;5.90;;
21339;SDS011;10828;47.064;15.422;2022-12-31T16:43:46;10.60;;;4.53;;
21339;SDS011;10828;47.064;15.422;2022-12-31T16:46:16;17.77;;;4.20;;
21339;SDS011;10828;47.064;15.422;2022-12-31T16:48:59;13.03;;;4.10;;
21339;SDS011;10828;47.064;15.422;2022-12-31T16:51:38;8.77;;;3.43;;
21339;SDS011;10828;47.064;15.422;2022-12-31T16:54:04;11.40;;;3.57;;
21339;SDS011;10828;47.064;15.422;2022-12-31T16:57:02;14.23;;;4.57;;
21339;SDS011;10828;47.064;15.422;2022-12-31T16:59:31;9.73;;;3.80;;
21339;SDS011;10828;47.064;15.422;2022-12-31T17:02:00;12.63;;;3.90;;
21339;SDS011;10828;47.064;15.422;2022-12-31T17:04:28;12.37;;;4.23;;
21339;SDS011;10828;47.064;15.422;2022-12-31T17:12:34;14.83;;;4.23;;
21339;SDS011;10828;47.064;15.422;2022-12-31T17:15:05;12.33;;;3.77;;
21339;SDS011;10828;47.064;15.422;2022-12-31T17:17:32;15.67;;;4.00;;
21339;SDS011;10828;47.064;15.422;2022-12-31T17:20:05;7.43;;;3.27;;
21339;SDS011;10828;47.064;15.422;2022-12-31T17:22:38;11.63;;;4.03;;
21339;SDS011;10828;47.064;15.422;2022-12-31T17:27:32;9.80;;;4.10;;
21339;SDS011;10828;47.064;15.422;2022-12-31T17:32:44;12.17;;;3.83;;
21339;SDS011;10828;47.064;15.422;2022-12-31T17:35:31;7.35;;;2.80;;
21339;SDS011;10828;47.064;15.422;2022-12-31T17:40:45;14.67;;;4.27;;
21339;SDS011;10828;47.064;15.422;2022-12-31T17:43:17;12.97;;;3.30;;
21339;SDS011;10828;47.064;15.422;2022-12-31T17:45:44;9.63;;;4.27;;
21339;SDS011;10828;47.064;15.422;2022-12-31T17:48:11;12.67;;;4.90;;
21339;SDS011;10828;47.064;15.422;2022-12-31T17:50:49;12.20;;;4.33;;
21339;SDS011;10828;47.064;15.422;2022-12-31T17:53:16;15.23;;;4.50;;
21339;SDS011;10828;47.064;15.422;2022-12-31T17:55:43;17.37;;;4.67;;
21339;SDS011;10828;47.064;15.422;2022-12-31T17:58:16;14.03;;;4.10;;
21339;SDS011;10828;47.064;15.422;2022-12-31T18:00:54;10.47;;;4.43;;
21339;SDS011;10828;47.064;15.422;2022-12-31T18:03:20;15.30;;;4.17;;
21339;SDS011;10828;47.064;15.422;2022-12-31T18:05:45;12.87;;;4.23;;
21339;SDS011;10828;47.064;15.422;2022-12-31T18:08:11;17.47;;;4.90;;
21339;SDS011;10828;47.064;15.422;2022-12-31T18:10:37;17.67;;;4.83;;
21339;SDS011;10828;47.064;15.422;2022-12-31T18:13:06;8.90;;;3.80;;
21339;SDS011;10828;47.064;15.422;2022-12-31T18:15:43;11.67;;;3.80;;
21339;SDS011;10828;47.064;15.422;2022-12-31T18:18:17;10.77;;;4.17;;
21339;SDS011;10828;47.064;15.422;2022-12-31T18:20:45;11.23;;;4.00;;
21339;SDS011;10828;47.064;15.422;2022-12-31T18:23:18;9.53;;;3.73;;
21339;SDS011;10828;47.064;15.422;2022-12-31T18:25:52;12.83;;;4.10;;
21339;SDS011;10828;47.064;15.422;2022-12-31T18:28:18;13.10;;;4.20;;
21339;SDS011;10828;47.064;15.422;2022-12-31T18:30:44;9.67;;;3.83;;
21339;SDS011;10828;47.064;15.422;2022-12-31T18:33:11;11.93;;;3.97;;
21339;SDS011;10828;47.064;15.422;2022-12-31T18:35:38;10.30;;;4.03;;
21339;SDS011;10828;47.064;15.422;2022-12-31T18:38:14;14.83;;;5.30;;
21339;SDS011;10828;47.064;15.422;2022-12-31T18:40:41;17.27;;;5.87;;
21339;SDS011;10828;47.064;15.422;2022-12-31T18:43:13;24.80;;;8.13;;
21339;SDS011;10828;47.064;15.422;2022-12-31T18:45:40;20.07;;;8.53;;
21339;SDS011;10828;47.064;15.422;2022-12-31T18:48:06;26.87;;;8.33;;
21339;SDS011;10828;47.064;15.422;2022-12-31T18:50:31;20.00;;;8.17;;
21339;SDS011;10828;47.064;15.422;2022-12-31T18:52:58;17.97;;;7.17;;
21339;SDS011;10828;47.064;15.422;2022-12-31T18:55:37;31.67;;;9.90;;